Time;durP1;ratioP1;P1;durP2;ratioP2;P2;SDS_P1;SDS_P2;PMS_P1;PMS_P2;Temp;Humidity;BMP_temperature;BMP_pressure;BME280_temperature;BME280_humidity;BME280_pressure;Samples;Min_cycle;Max_cycle;Signal;HPM_P1;HPM_P2
2022/08/25 00:01:09;;;;;;;4.03;2.33;;;24.60;99.90;;;;;;5088502;28;20390;-67
2022/08/25 00:03:35;;;;;;;4.85;2.70;;;24.60;99.90;;;;;;5088090;28;20823;-66
2022/08/25 00:06:02;;;;;;;4.97;2.70;;;24.50;99.90;;;;;;5089153;28;20386;-67
2022/08/25 00:08:28;;;;;;;6.82;3.10;;;24.50;99.90;;;;;;5086086;28;20627;-67
2022/08/25 00:10:53;;;;;;;5.85;2.88;;;24.40;99.90;;;;;;5086124;28;20545;-67
2022/08/25 00:13:19;;;;;;;3.78;2.53;;;24.40;99.90;;;;;;5085911;28;20404;-66
2022/08/25 00:15:45;;;;;;;4.53;2.90;;;24.30;99.90;;;;;;5086123;28;20729;-66
2022/08/25 00:18:11;;;;;;;3.28;2.50;;;24.30;99.90;;;;;;5086854;28;20468;-67
2022/08/25 00:20:36;;;;;;;3.63;2.50;;;24.30;99.90;;;;;;5084724;28;20386;-66
2022/08/25 00:23:02;;;;;;;4.27;2.70;;;24.20;99.90;;;;;;5086557;28;20384;-66
2022/08/25 00:25:27;;;;;;;6.93;2.70;;;24.20;99.90;;;;;;5089233;28;20480;-66
2022/08/25 00:27:53;;;;;;;6.10;2.80;;;24.20;99.90;;;;;;5090823;28;20738;-66
2022/08/25 00:30:19;;;;;;;8.07;2.90;;;24.10;99.90;;;;;;5090798;28;20425;-66
2022/08/25 00:32:45;;;;;;;3.60;2.57;;;24.00;99.90;;;;;;5090818;28;20628;-66
2022/08/25 00:35:10;;;;;;;4.87;2.63;;;24.00;99.90;;;;;;5090905;28;20417;-66
2022/08/25 00:37:37;;;;;;;5.38;2.88;;;24.00;99.90;;;;;;5093179;28;20508;-66
2022/08/25 00:40:04;;;;;;;4.45;2.90;;;23.90;99.90;;;;;;5093450;28;20386;-69
2022/08/25 00:42:30;;;;;;;5.50;2.67;;;23.90;99.90;;;;;;5094590;28;20762;-66
2022/08/25 00:44:56;;;;;;;4.85;2.60;;;23.90;99.90;;;;;;5092938;28;20389;-66
2022/08/25 00:47:23;;;;;;;5.03;3.03;;;23.90;99.90;;;;;;5094466;28;20398;-66
2022/08/25 00:49:53;;;;;;;4.65;3.03;;;23.80;99.90;;;;;;5095006;28;20386;-66
2022/08/25 00:52:26;;;;;;;5.38;3.13;;;23.80;99.90;;;;;;5092261;28;20592;-66
2022/08/25 00:55:20;;;;;;;5.63;2.97;;;23.80;99.90;;;;;;5092275;28;20864;-66
2022/08/25 00:57:54;;;;;;;4.45;2.90;;;23.70;99.90;;;;;;5089019;28;20638;-66
2022/08/25 01:00:31;;;;;;;4.90;3.00;;;23.60;99.90;;;;;;5091144;28;20686;-65
2022/08/25 01:02:57;;;;;;;4.53;2.90;;;23.70;99.90;;;;;;5090454;28;20463;-66
2022/08/25 01:05:24;;;;;;;4.87;2.63;;;23.60;99.90;;;;;;5092061;28;20390;-65
2022/08/25 01:07:51;;;;;;;5.28;2.90;;;23.60;99.90;;;;;;5092692;28;20421;-66
2022/08/25 01:10:17;;;;;;;4.25;3.00;;;23.60;99.90;;;;;;5091466;28;20378;-66
2022/08/25 01:12:43;;;;;;;4.90;2.80;;;23.60;99.90;;;;;;5092203;28;20377;-66
2022/08/25 01:15:12;;;;;;;3.88;2.75;;;23.50;99.90;;;;;;5091219;28;20390;-66
2022/08/25 01:17:47;;;;;;;5.53;2.92;;;23.50;99.90;;;;;;5090319;28;20677;-66
2022/08/25 01:20:15;;;;;;;4.47;2.72;;;23.50;99.90;;;;;;5090256;28;20473;-66
2022/08/25 01:22:41;;;;;;;4.78;2.80;;;23.50;99.90;;;;;;5088682;28;20373;-67
2022/08/25 01:25:30;;;;;;;4.90;2.90;;;23.40;99.90;;;;;;5088312;28;20393;-66
2022/08/25 01:27:55;;;;;;;4.05;3.15;;;23.40;99.90;;;;;;5089216;28;20686;-66
2022/08/25 01:30:23;;;;;;;6.27;3.07;;;23.30;99.90;;;;;;5089853;28;20794;-67
2022/08/25 01:32:48;;;;;;;5.70;3.23;;;23.30;99.90;;;;;;5091800;28;20390;-66
2022/08/25 01:35:14;;;;;;;7.37;2.90;;;23.30;99.90;;;;;;5091298;28;20673;-66
2022/08/25 01:37:40;;;;;;;4.88;3.05;;;23.20;99.90;;;;;;5090395;28;20940;-66
2022/08/25 01:40:06;;;;;;;4.10;2.80;;;23.20;99.90;;;;;;5092290;28;20473;-66
2022/08/25 01:42:45;;;;;;;3.15;2.88;;;23.20;99.90;;;;;;5092407;28;20378;-66
2022/08/25 01:45:11;;;;;;;5.15;2.70;;;23.10;99.90;;;;;;5092019;28;20431;-66
2022/08/25 01:47:37;;;;;;;4.67;3.07;;;23.10;99.90;;;;;;5093283;28;20774;-66
2022/08/25 01:50:04;;;;;;;5.27;2.97;;;23.10;99.90;;;;;;5094256;28;20482;-66
2022/08/25 01:52:37;;;;;;;4.82;2.95;;;23.00;99.90;;;;;;5095035;28;20482;-66
2022/08/25 01:55:04;;;;;;;5.82;3.15;;;23.00;99.90;;;;;;5095529;28;20798;-66
2022/08/25 01:57:30;;;;;;;4.65;2.97;;;23.00;99.90;;;;;;5094685;28;20390;-66
2022/08/25 01:59:57;;;;;;;5.45;3.00;;;23.00;99.90;;;;;;5093670;28;20709;-66
2022/08/25 02:02:22;;;;;;;5.93;3.35;;;22.90;99.90;;;;;;5093590;28;20398;-66
2022/08/25 02:04:48;;;;;;;7.03;3.53;;;22.90;99.90;;;;;;5094709;28;20426;-66
2022/08/25 02:07:14;;;;;;;4.37;3.13;;;22.90;99.90;;;;;;5095442;28;20382;-66
2022/08/25 02:09:40;;;;;;;4.93;3.40;;;22.80;99.90;;;;;;5094596;28;20388;-66
2022/08/25 02:12:08;;;;;;;5.70;3.03;;;22.70;99.90;;;;;;5092786;28;20483;-66
2022/08/25 02:14:35;;;;;;;3.65;3.03;;;22.70;99.90;;;;;;5091473;28;20378;-66
2022/08/25 02:17:01;;;;;;;5.97;2.90;;;22.70;99.90;;;;;;5092200;28;20406;-66
2022/08/25 02:19:29;;;;;;;3.78;2.70;;;22.70;99.90;;;;;;5091126;28;20407;-66
2022/08/25 02:21:55;;;;;;;4.18;2.90;;;22.70;99.90;;;;;;5090357;28;20381;-66
2022/08/25 02:24:21;;;;;;;6.13;3.17;;;22.70;99.90;;;;;;5091463;28;20444;-67
2022/08/25 02:26:47;;;;;;;4.97;2.90;;;22.60;99.90;;;;;;5092236;28;20898;-66
2022/08/25 02:29:13;;;;;;;6.07;3.10;;;22.60;99.90;;;;;;5092067;28;20515;-66
2022/08/25 02:31:39;;;;;;;4.45;3.10;;;22.60;99.90;;;;;;5091300;28;20422;-66
2022/08/25 02:34:06;;;;;;;5.77;3.30;;;22.50;99.90;;;;;;5100640;28;20445;-66
2022/08/25 02:36:32;;;;;;;7.90;3.30;;;22.50;99.90;;;;;;5096274;28;20396;-67
2022/08/25 02:38:59;;;;;;;5.37;3.10;;;22.50;99.90;;;;;;5097084;28;20472;-67
2022/08/25 02:41:25;;;;;;;5.15;3.40;;;22.40;99.90;;;;;;5097440;28;20369;-66
2022/08/25 02:43:51;;;;;;;5.10;3.20;;;22.40;99.90;;;;;;5096267;28;20372;-66
2022/08/25 02:46:19;;;;;;;4.17;2.70;;;22.40;99.90;;;;;;5095509;28;21087;-66
2022/08/25 02:48:46;;;;;;;3.45;2.75;;;22.40;99.90;;;;;;5096452;28;20388;-67
2022/08/25 02:51:11;;;;;;;4.43;3.05;;;22.40;99.90;;;;;;5114719;28;20507;-66
2022/08/25 02:53:39;;;;;;;6.23;3.20;;;22.40;99.90;;;;;;5112758;28;20741;-66
2022/08/25 02:56:07;;;;;;;5.72;3.55;;;22.30;99.90;;;;;;5092804;28;20492;-66
2022/08/25 02:58:33;;;;;;;3.72;2.80;;;22.40;99.90;;;;;;5095517;28;20839;-67
2022/08/25 03:00:58;;;;;;;3.53;2.80;;;22.30;99.90;;;;;;5094928;28;20495;-67
2022/08/25 03:03:24;;;;;;;4.90;3.17;;;22.30;99.90;;;;;;5096660;28;20380;-66
2022/08/25 03:05:49;;;;;;;3.72;3.17;;;22.30;99.90;;;;;;5093956;28;20710;-66
2022/08/25 03:08:16;;;;;;;4.53;3.23;;;22.20;99.90;;;;;;5112121;28;20536;-67
2022/08/25 03:10:41;;;;;;;6.25;3.25;;;22.20;99.90;;;;;;5094239;28;20407;-67
2022/08/25 03:13:07;;;;;;;3.92;3.03;;;22.20;99.90;;;;;;5093911;28;20448;-66
2022/08/25 03:15:36;;;;;;;5.43;3.40;;;22.20;99.90;;;;;;5094257;28;20385;-67
2022/08/25 03:18:03;;;;;;;4.83;3.47;;;22.10;99.90;;;;;;5111993;28;20449;-66
2022/08/25 03:20:29;;;;;;;5.60;3.27;;;22.10;99.90;;;;;;5091814;28;20372;-66
2022/08/25 03:22:54;;;;;;;5.50;3.07;;;22.00;99.90;;;;;;5094293;28;20378;-66
2022/08/25 03:28:07;;;;;;;3.75;3.30;;;22.00;99.90;;;;;;5113163;28;20822;-67
2022/08/25 03:30:33;;;;;;;5.53;3.38;;;21.90;99.90;;;;;;5095508;28;20391;-66
2022/08/25 03:32:58;;;;;;;6.45;3.17;;;21.90;99.90;;;;;;5095014;28;20400;-66
2022/08/25 03:35:24;;;;;;;6.43;3.50;;;21.90;99.90;;;;;;5095721;28;20840;-66
2022/08/25 03:37:50;;;;;;;6.97;3.70;;;21.90;99.90;;;;;;5096909;28;20418;-66
2022/08/25 03:40:16;;;;;;;4.13;3.20;;;21.90;99.90;;;;;;5096251;28;20383;-69
2022/08/25 03:42:43;;;;;;;6.78;3.42;;;21.90;99.90;;;;;;5113216;28;20384;-67
2022/08/25 03:45:10;;;;;;;6.23;3.27;;;21.90;99.90;;;;;;5112166;28;20480;-66
2022/08/25 03:47:37;;;;;;;4.97;3.47;;;21.80;99.90;;;;;;5092362;28;20392;-67
2022/08/25 03:50:05;;;;;;;5.53;3.42;;;21.80;99.90;;;;;;5092039;28;20383;-66
2022/08/25 03:52:30;;;;;;;5.43;3.25;;;21.80;99.90;;;;;;5090479;28;20467;-66
2022/08/25 03:54:56;;;;;;;5.17;3.30;;;21.80;99.90;;;;;;5109991;28;20725;-67
2022/08/25 03:57:21;;;;;;;5.60;3.50;;;21.70;99.90;;;;;;5091576;28;20408;-66
2022/08/25 03:59:47;;;;;;;5.90;3.33;;;21.70;99.90;;;;;;5091737;28;20709;-66
2022/08/25 04:02:13;;;;;;;5.50;3.55;;;21.70;99.90;;;;;;5090945;28;20399;-67
2022/08/25 04:04:39;;;;;;;4.07;3.60;;;21.70;99.90;;;;;;5091648;28;20472;-66
2022/08/25 04:07:05;;;;;;;5.88;3.53;;;21.60;99.90;;;;;;5090344;28;20533;-67
2022/08/25 04:09:31;;;;;;;4.30;3.40;;;21.60;99.90;;;;;;5088747;28;20476;-66
2022/08/25 04:11:56;;;;;;;6.00;3.72;;;21.60;99.90;;;;;;5087395;28;20540;-66
2022/08/25 04:14:22;;;;;;;5.57;3.60;;;21.60;99.90;;;;;;5104096;28;20584;-66
2022/08/25 04:16:48;;;;;;;5.23;3.40;;;21.50;99.90;;;;;;5083980;28;20507;-66
2022/08/25 04:19:14;;;;;;;5.22;3.60;;;21.50;99.90;;;;;;5082227;28;20528;-67
2022/08/25 04:21:40;;;;;;;5.23;3.50;;;21.50;99.90;;;;;;5081136;28;20629;-67
2022/08/25 04:24:08;;;;;;;7.18;3.60;;;21.50;99.90;;;;;;5081294;28;20528;-66
2022/08/25 04:26:38;;;;;;;5.93;3.50;;;21.40;99.90;;;;;;5080809;28;21029;-66
2022/08/25 04:29:06;;;;;;;5.60;3.72;;;21.40;99.90;;;;;;5084248;28;20386;-66
2022/08/25 04:31:32;;;;;;;5.68;3.47;;;21.40;99.90;;;;;;5102981;28;20780;-66
2022/08/25 04:34:01;;;;;;;5.57;3.60;;;21.40;99.90;;;;;;5085234;28;20404;-66
2022/08/25 04:36:27;;;;;;;4.88;3.65;;;21.40;99.90;;;;;;5087501;28;20396;-66
2022/08/25 04:38:52;;;;;;;5.80;3.75;;;21.30;99.90;;;;;;5088356;28;20379;-66
2022/08/25 04:41:20;;;;;;;5.83;3.83;;;21.40;99.90;;;;;;5088729;28;20486;-66
2022/08/25 04:43:45;;;;;;;5.38;3.45;;;21.30;99.90;;;;;;5087962;28;20461;-66
2022/08/25 04:46:16;;;;;;;5.93;3.40;;;21.30;99.90;;;;;;5087871;28;20409;-66
2022/08/25 04:48:42;;;;;;;6.43;3.55;;;21.40;99.90;;;;;;5107382;28;20380;-67
2022/08/25 04:51:13;;;;;;;5.20;3.63;;;21.30;99.90;;;;;;5092627;28;20384;-66
2022/08/25 04:53:39;;;;;;;4.80;3.33;;;21.30;99.90;;;;;;5091612;28;20522;-66
2022/08/25 04:56:07;;;;;;;7.93;4.03;;;21.30;99.90;;;;;;5090618;28;20491;-66
2022/08/25 04:58:34;;;;;;;5.28;3.92;;;21.30;99.90;;;;;;5087409;28;20543;-65
2022/08/25 05:01:08;;;;;;;6.10;4.00;;;21.30;99.90;;;;;;5087176;28;20389;-66
2022/08/25 05:03:35;;;;;;;5.05;4.00;;;21.30;99.90;;;;;;5085207;28;20966;-66
2022/08/25 05:06:01;;;;;;;7.28;4.03;;;21.20;99.90;;;;;;5082665;28;20392;-66
2022/08/25 05:08:27;;;;;;;5.73;3.80;;;21.30;99.90;;;;;;5101278;28;20387;-65
2022/08/25 05:10:55;;;;;;;6.00;4.03;;;21.30;99.90;;;;;;5082474;28;20796;-65
2022/08/25 05:13:21;;;;;;;6.43;3.95;;;21.30;99.90;;;;;;5087066;28;20449;-65
2022/08/25 05:15:56;;;;;;;5.97;4.43;;;21.30;99.90;;;;;;5105321;28;20479;-65
2022/08/25 05:18:24;;;;;;;5.72;4.10;;;21.30;99.90;;;;;;5087873;28;20797;-65
2022/08/25 05:20:52;;;;;;;4.70;3.92;;;21.30;99.90;;;;;;5089026;28;20503;-66
2022/08/25 05:23:18;;;;;;;6.23;4.23;;;21.30;99.90;;;;;;5106663;28;20400;-66
2022/08/25 05:25:44;;;;;;;5.53;3.80;;;21.30;99.90;;;;;;5088092;28;20921;-65
2022/08/25 05:28:10;;;;;;;7.57;4.35;;;21.30;99.90;;;;;;5088662;28;20407;-66
2022/08/25 05:30:39;;;;;;;5.05;4.22;;;21.40;99.90;;;;;;5087164;28;20655;-66
2022/08/25 05:33:06;;;;;;;6.32;4.20;;;21.30;99.90;;;;;;5104674;28;20464;-66
2022/08/25 05:35:31;;;;;;;7.18;4.80;;;21.30;99.90;;;;;;5087168;28;21012;-67
2022/08/25 05:37:57;;;;;;;6.82;5.50;;;21.30;99.90;;;;;;5085874;28;20829;-66
2022/08/25 05:40:23;;;;;;;6.63;5.53;;;21.30;99.90;;;;;;5086163;28;20966;-66
2022/08/25 05:42:50;;;;;;;10.57;6.20;;;21.30;99.90;;;;;;5083231;28;20368;-66
2022/08/25 05:45:16;;;;;;;7.25;6.40;;;21.20;99.90;;;;;;5101342;28;20376;-66
2022/08/25 05:47:42;;;;;;;7.35;6.18;;;21.20;99.90;;;;;;5085217;28;20539;-66
2022/08/25 05:50:08;;;;;;;7.63;6.63;;;21.30;99.90;;;;;;5083235;28;20625;-66
2022/08/25 05:52:33;;;;;;;8.35;6.70;;;21.30;99.90;;;;;;5082844;28;20449;-66
2022/08/25 05:54:59;;;;;;;7.67;6.60;;;21.30;99.90;;;;;;5081595;28;20387;-66
2022/08/25 05:57:24;;;;;;;9.60;7.32;;;21.20;99.90;;;;;;5100419;28;20784;-66
2022/08/25 05:59:50;;;;;;;11.10;7.53;;;21.20;99.90;;;;;;5080743;28;20483;-66
2022/08/25 06:05:00;;;;;;;8.53;7.20;;;21.20;99.90;;;;;;5098612;28;20526;-66
2022/08/25 06:07:26;;;;;;;8.20;7.03;;;21.30;99.90;;;;;;5080933;28;20867;-66
2022/08/25 06:09:52;;;;;;;9.50;7.65;;;21.30;99.90;;;;;;5080991;28;20388;-66
2022/08/25 06:12:20;;;;;;;8.00;7.20;;;21.40;99.90;;;;;;5080866;28;20547;-66
2022/08/25 06:14:45;;;;;;;9.23;7.82;;;21.30;99.90;;;;;;5081347;28;20664;-66
2022/08/25 06:17:11;;;;;;;8.45;7.60;;;21.20;99.90;;;;;;5080992;28;20408;-66
2022/08/25 06:19:37;;;;;;;9.27;7.80;;;21.20;99.90;;;;;;5100506;28;20524;-66
2022/08/25 06:22:03;;;;;;;9.77;8.55;;;21.20;99.90;;;;;;5090303;28;20376;-66
2022/08/25 06:24:28;;;;;;;9.07;7.77;;;21.10;99.90;;;;;;5092175;28;20384;-66
2022/08/25 06:26:55;;;;;;;8.93;8.03;;;21.20;99.90;;;;;;5103461;28;20644;-66
2022/08/25 06:29:21;;;;;;;9.80;7.85;;;21.20;99.90;;;;;;5081832;28;20838;-66
2022/08/25 06:31:48;;;;;;;9.82;7.90;;;21.20;99.90;;;;;;5083450;28;20400;-66
2022/08/25 06:34:14;;;;;;;8.73;7.60;;;21.30;99.90;;;;;;5083366;28;20512;-66
2022/08/25 06:36:40;;;;;;;11.82;9.05;;;21.30;99.90;;;;;;5100774;28;20407;-66
2022/08/25 06:39:06;;;;;;;9.27;8.27;;;21.30;99.90;;;;;;5098517;28;20376;-66
2022/08/25 06:41:32;;;;;;;8.80;8.00;;;21.30;99.90;;;;;;5079934;28;20577;-66
2022/08/25 06:43:58;;;;;;;8.97;8.03;;;21.30;99.90;;;;;;5079981;28;20705;-66
2022/08/25 06:46:26;;;;;;;8.80;7.60;;;21.30;99.90;;;;;;5080894;28;20583;-66
2022/08/25 06:48:56;;;;;;;8.73;7.50;;;21.40;99.90;;;;;;5079481;28;20758;-66
2022/08/25 06:51:23;;;;;;;10.38;8.18;;;21.40;99.90;;;;;;5079812;28;20380;-65
2022/08/25 06:53:51;;;;;;;8.90;7.45;;;21.40;99.90;;;;;;5078659;28;20381;-66
2022/08/25 06:56:18;;;;;;;9.27;7.53;;;21.40;99.90;;;;;;5076614;28;20395;-65
2022/08/25 06:58:44;;;;;;;8.90;8.05;;;21.40;99.90;;;;;;5076045;28;20765;-66
2022/08/25 07:01:12;;;;;;;10.75;8.65;;;21.40;99.90;;;;;;5077547;28;20831;-66
2022/08/25 07:03:39;;;;;;;8.65;7.63;;;21.40;99.90;;;;;;5096793;28;20479;-66
2022/08/25 07:06:05;;;;;;;10.60;8.13;;;21.40;99.90;;;;;;5098089;28;20368;-66
2022/08/25 07:08:31;;;;;;;8.95;8.05;;;21.50;99.90;;;;;;5078918;28;20537;-66
2022/08/25 07:10:57;;;;;;;8.33;7.40;;;21.40;99.90;;;;;;5078136;28;20396;-66
2022/08/25 07:13:23;;;;;;;9.93;7.93;;;21.50;99.90;;;;;;5076818;28;20582;-66
2022/08/25 07:15:53;;;;;;;8.60;7.80;;;21.50;99.90;;;;;;5077659;28;20377;-66
2022/08/25 07:18:19;;;;;;;8.93;8.05;;;21.50;99.90;;;;;;5075086;28;20810;-66
2022/08/25 07:20:45;;;;;;;8.63;7.53;;;21.50;99.90;;;;;;5076301;28;20392;-66
2022/08/25 07:23:10;;;;;;;8.77;7.90;;;21.50;99.90;;;;;;5094269;28;20391;-66
2022/08/25 07:25:37;;;;;;;10.90;9.75;;;21.50;99.90;;;;;;5076734;28;20590;-66
2022/08/25 07:28:02;;;;;;;10.60;8.88;;;21.50;99.90;;;;;;5096342;28;20691;-65
2022/08/25 07:30:28;;;;;;;9.68;8.45;;;21.50;99.90;;;;;;5094198;28;20483;-66
2022/08/25 07:32:54;;;;;;;10.02;9.05;;;21.50;99.90;;;;;;5076593;28;20911;-66
2022/08/25 07:35:22;;;;;;;9.30;8.30;;;21.50;99.90;;;;;;5078253;28;20408;-66
2022/08/25 07:37:56;;;;;;;9.98;8.98;;;21.50;99.90;;;;;;5099595;28;20508;-66
2022/08/25 07:40:26;;;;;;;8.88;7.78;;;21.50;99.90;;;;;;5081319;28;20756;-66
2022/08/25 07:42:55;;;;;;;8.98;8.00;;;21.50;99.90;;;;;;5099949;28;20599;-66
2022/08/25 07:45:28;;;;;;;9.20;8.30;;;21.50;99.90;;;;;;5082432;28;20404;-66
2022/08/25 07:47:58;;;;;;;8.00;7.23;;;21.50;99.90;;;;;;5082641;28;20392;-65
2022/08/25 07:50:25;;;;;;;8.33;6.93;;;21.60;99.90;;;;;;5077937;28;20609;-66
2022/08/25 07:52:51;;;;;;;7.72;7.03;;;21.70;99.90;;;;;;5078050;28;20391;-66
2022/08/25 07:55:16;;;;;;;7.30;6.60;;;21.70;99.90;;;;;;5078065;28;20376;-66
2022/08/25 07:57:42;;;;;;;9.02;8.13;;;21.80;99.90;;;;;;5078506;28;20481;-66
2022/08/25 08:00:09;;;;;;;8.38;7.68;;;21.70;99.90;;;;;;5078021;28;20628;-66
2022/08/25 08:02:39;;;;;;;7.65;6.85;;;21.80;99.90;;;;;;5077893;28;20420;-66
2022/08/25 08:05:06;;;;;;;7.33;6.40;;;21.80;99.90;;;;;;5078076;28;20780;-66
2022/08/25 08:07:31;;;;;;;8.52;7.47;;;21.80;99.90;;;;;;5078055;28;20876;-66
2022/08/25 08:09:57;;;;;;;9.55;7.18;;;21.80;99.90;;;;;;5077710;28;20915;-66
2022/08/25 08:12:24;;;;;;;7.95;7.18;;;21.80;99.90;;;;;;5075803;28;20665;-66
2022/08/25 08:14:51;;;;;;;8.05;7.35;;;21.80;99.90;;;;;;5094683;28;20385;-66
2022/08/25 08:17:17;;;;;;;9.65;7.65;;;21.80;99.90;;;;;;5076570;28;20831;-66
2022/08/25 08:19:42;;;;;;;8.25;7.30;;;21.90;99.90;;;;;;5074739;28;20460;-66
2022/08/25 08:22:10;;;;;;;7.45;6.75;;;21.90;99.90;;;;;;5076588;28;20527;-66
2022/08/25 08:24:38;;;;;;;8.57;7.00;;;22.00;99.90;;;;;;5075983;28;20400;-65
2022/08/25 08:27:07;;;;;;;8.52;7.72;;;22.00;99.90;;;;;;5077846;28;20784;-65
2022/08/25 08:29:38;;;;;;;7.93;6.97;;;21.90;99.90;;;;;;5079546;28;20648;-66
2022/08/25 08:32:05;;;;;;;7.88;6.82;;;22.00;99.90;;;;;;5080689;28;20396;-65
2022/08/25 08:34:31;;;;;;;11.13;7.10;;;21.90;99.90;;;;;;5079142;28;20484;-66
2022/08/25 08:36:58;;;;;;;7.17;6.47;;;21.90;99.90;;;;;;5077148;28;20437;-65
2022/08/25 08:39:25;;;;;;;6.87;6.17;;;22.00;99.90;;;;;;5075547;28;20759;-66
2022/08/25 08:42:15;;;;;;;7.60;6.90;;;22.00;99.90;;;;;;5077902;28;20625;-54
2022/08/25 08:44:44;;;;;;;6.50;5.90;;;22.10;99.90;;;;;;5100107;28;20384;-55
2022/08/25 08:47:14;;;;;;;7.70;7.00;;;22.10;99.90;;;;;;5086301;28;20456;-56
2022/08/25 08:49:43;;;;;;;7.05;6.35;;;22.10;99.90;;;;;;5085188;28;20384;-54
2022/08/25 08:52:12;;;;;;;6.47;5.78;;;22.10;99.90;;;;;;5084582;28;20384;-53
2022/08/25 08:54:41;;;;;;;7.50;6.50;;;22.10;99.90;;;;;;5084178;28;20380;-56
2022/08/25 08:57:21;;;;;;;8.25;6.65;;;22.10;99.90;;;;;;5082276;28;20477;-53
2022/08/25 09:00:08;;;;;;;6.20;5.70;;;22.10;99.90;;;;;;5078546;28;20389;-56
2022/08/25 09:03:03;;;;;;;7.93;6.88;;;22.10;99.90;;;;;;5079439;28;20585;-57
2022/08/25 09:05:33;;;;;;;6.97;6.28;;;22.20;99.90;;;;;;5068829;28;20385;-56
2022/08/25 09:08:11;;;;;;;6.78;6.10;;;22.20;99.90;;;;;;5079606;28;20377;-55
2022/08/25 09:10:57;;;;;;;5.90;5.40;;;22.30;99.90;;;;;;5086812;28;20394;-54
2022/08/25 09:13:32;;;;;;;7.72;6.57;;;22.30;99.90;;;;;;5082793;28;20780;-56
2022/08/25 09:19:28;;;;;;;5.82;5.22;;;22.50;99.90;;;;;;5078476;28;20388;-55
2022/08/25 09:22:03;;;;;;;5.55;5.15;;;22.70;99.90;;;;;;5081933;28;20624;-56
2022/08/25 09:25:16;;;;;;;6.38;5.55;;;22.80;99.90;;;;;;5080507;28;20640;-52
2022/08/25 09:28:07;;;;;;;9.93;5.20;;;22.90;99.90;;;;;;5016484;28;20547;-56
2022/08/25 09:30:48;;;;;;;6.35;5.75;;;23.00;99.90;;;;;;5080941;28;20445;-56
2022/08/25 09:33:20;;;;;;;6.28;5.72;;;23.10;99.90;;;;;;5080296;28;20426;-55
2022/08/25 09:35:46;;;;;;;7.80;6.95;;;23.10;99.90;;;;;;5079736;28;20827;-55
2022/08/25 09:38:12;;;;;;;7.18;6.43;;;23.20;99.90;;;;;;5077625;28;20428;-57
2022/08/25 09:40:47;;;;;;;6.25;5.70;;;23.20;99.90;;;;;;5096460;28;20427;-55
2022/08/25 09:43:30;;;;;;;8.05;6.82;;;23.30;99.90;;;;;;5093386;28;20376;-57
2022/08/25 09:46:12;;;;;;;7.15;6.50;;;23.40;99.90;;;;;;5097026;28;20420;-55
2022/08/25 09:48:47;;;;;;;7.72;6.75;;;23.40;99.90;;;;;;5094697;28;20441;-57
2022/08/25 09:51:27;;;;;;;8.68;7.82;;;23.50;99.90;;;;;;5077218;28;20591;-56
2022/08/25 09:54:15;;;;;;;7.55;6.85;;;23.60;99.90;;;;;;5097768;28;20604;-55
2022/08/25 09:56:51;;;;;;;7.22;6.55;;;23.70;99.90;;;;;;5078331;28;20418;-57
2022/08/25 09:59:36;;;;;;;7.85;6.53;;;23.70;99.90;;;;;;5098081;28;20492;-54
2022/08/25 10:02:19;;;;;;;8.13;7.13;;;23.70;99.90;;;;;;5100075;28;20831;-56
2022/08/25 10:04:45;;;;;;;7.50;6.80;;;23.70;99.90;;;;;;5080534;28;20399;-54
2022/08/25 10:07:35;;;;;;;7.85;7.10;;;23.70;99.90;;;;;;5099046;28;20659;-54
2022/08/25 10:10:14;;;;;;;7.10;6.40;;;23.80;99.90;;;;;;5083136;28;20748;-55
2022/08/25 10:12:43;;;;;;;7.80;6.20;;;23.90;99.90;;;;;;5084555;28;20437;-56
2022/08/25 10:15:19;;;;;;;7.30;6.53;;;23.90;99.90;;;;;;5082397;28;20423;-57
2022/08/25 10:17:45;;;;;;;8.45;6.15;;;24.00;99.90;;;;;;5081490;28;20404;-56
2022/08/25 10:20:23;;;;;;;6.57;5.97;;;24.10;99.90;;;;;;5098082;28;20391;-55
2022/08/25 10:22:50;;;;;;;5.57;4.97;;;24.20;99.90;;;;;;5076451;28;20413;-66
2022/08/25 10:25:28;;;;;;;7.75;5.45;;;24.30;99.90;;;;;;5077368;28;20388;-66
2022/08/25 10:28:29;;;;;;;4.82;4.43;;;24.20;99.90;;;;;;5077459;28;20513;-65
2022/08/25 10:31:08;;;;;;;6.90;4.50;;;24.30;99.90;;;;;;5096164;28;20384;-65
2022/08/25 10:33:50;;;;;;;4.18;3.78;;;24.30;99.90;;;;;;5075313;28;20587;-66
2022/08/25 10:36:26;;;;;;;5.03;3.90;;;24.40;99.90;;;;;;5090700;28;20856;-66
2022/08/25 10:38:56;;;;;;;8.15;4.55;;;24.50;99.90;;;;;;5070359;28;20483;-66
2022/08/25 10:41:40;;;;;;;5.22;3.85;;;24.60;99.90;;;;;;5068708;28;20695;-66
2022/08/25 10:47:25;;;;;;;5.57;3.65;;;24.70;99.90;;;;;;5085451;28;20445;-65
2022/08/25 10:50:02;;;;;;;3.70;3.15;;;24.80;99.90;;;;;;5071058;28;20789;-66
2022/08/25 10:52:50;;;;;;;4.93;3.30;;;24.90;99.90;;;;;;5074800;28;20635;-66
2022/08/25 10:55:46;;;;;;;4.20;3.10;;;25.00;99.90;;;;;;5077902;28;20629;-66
2022/08/25 10:58:50;;;;;;;3.75;3.20;;;25.20;99.90;;;;;;5033988;28;20919;-65
2022/08/25 11:01:44;;;;;;;4.53;3.13;;;25.30;99.90;;;;;;5081590;28;20488;-66
2022/08/25 11:04:19;;;;;;;4.05;3.08;;;25.40;99.90;;;;;;5085637;28;20458;-66
2022/08/25 11:06:53;;;;;;;7.88;3.20;;;25.60;99.90;;;;;;5086594;28;20855;-66
2022/08/25 11:09:24;;;;;;;3.00;2.80;;;25.70;99.90;;;;;;5083951;28;20469;-66
2022/08/25 11:12:02;;;;;;;4.18;2.70;;;26.00;99.90;;;;;;5100606;28;20372;-66
2022/08/25 11:14:34;;;;;;;6.23;3.37;;;26.40;99.90;;;;;;5078087;28;20526;-66
2022/08/25 11:17:08;;;;;;;4.93;3.00;;;26.80;99.90;;;;;;5077108;28;20400;-65
2022/08/25 11:19:38;;;;;;;3.60;2.60;;;27.00;99.90;;;;;;5075624;28;20636;-65
2022/08/25 11:22:29;;;;;;;3.80;2.90;;;27.10;99.90;;;;;;5073791;28;20970;-66
2022/08/25 11:25:14;;;;;;;3.53;2.70;;;27.10;99.90;;;;;;5071238;28;20564;-66
2022/08/25 11:27:55;;;;;;;3.15;2.45;;;27.00;99.90;;;;;;5068747;28;20396;-66
2022/08/25 11:30:21;;;;;;;3.72;2.75;;;26.70;99.90;;;;;;5068174;28;20645;-66
2022/08/25 11:32:50;;;;;;;4.18;3.03;;;26.50;99.90;;;;;;5067722;28;20761;-66
2022/08/25 11:35:24;;;;;;;4.15;3.35;;;26.50;99.90;;;;;;5068267;28;20416;-66
2022/08/25 11:38:05;;;;;;;4.37;2.73;;;26.40;99.90;;;;;;5086721;28;20514;-65
2022/08/25 11:41:02;;;;;;;9.13;3.80;;;26.30;99.90;;;;;;5068993;28;21577;-66
2022/08/25 11:43:48;;;;;;;6.53;3.53;;;26.60;99.90;;;;;;5068782;28;20536;-66
2022/08/25 11:46:55;;;;;;;4.00;2.85;;;27.10;99.90;;;;;;5070243;28;20855;-66
2022/08/25 11:49:23;;;;;;;2.93;2.40;;;27.80;99.90;;;;;;5082031;28;20393;-66
2022/08/25 11:51:50;;;;;;;7.93;2.78;;;28.30;99.90;;;;;;5080272;28;21031;-66
2022/08/25 11:54:24;;;;;;;3.50;2.72;;;28.70;99.90;;;;;;5082450;28;20415;-66
2022/08/25 11:57:06;;;;;;;4.35;2.80;;;29.00;99.90;;;;;;5084978;28;20400;-66
2022/08/25 11:59:51;;;;;;;3.35;2.70;;;29.30;99.90;;;;;;5083487;28;20372;-66
2022/08/25 12:02:37;;;;;;;3.92;2.60;;;29.50;99.90;;;;;;5102034;28;20815;-65
2022/08/25 12:05:10;;;;;;;3.30;2.40;;;29.50;99.90;;;;;;5083134;28;21068;-66
2022/08/25 12:10:51;;;;;;;4.45;2.80;;;29.10;99.90;;;;;;5101080;28;20464;-66
2022/08/25 12:13:44;;;;;;;3.72;2.35;;;28.90;99.90;;;;;;5082236;28;20914;-66
2022/08/25 12:16:38;;;;;;;5.67;2.70;;;28.80;99.90;;;;;;5083206;28;20414;-66
2022/08/25 12:19:47;;;;;;;5.07;2.63;;;29.00;99.90;;;;;;5084689;28;20399;-66
2022/08/25 12:22:13;;;;;;;3.22;2.05;;;29.40;99.90;;;;;;5089577;28;20448;-65
2022/08/25 12:24:41;;;;;;;4.65;2.58;;;29.80;99.90;;;;;;5091350;28;20372;-65
2022/08/25 12:27:42;;;;;;;4.25;2.40;;;30.10;99.90;;;;;;5089171;28;20388;-65
2022/08/25 12:30:27;;;;;;;3.80;2.40;;;30.30;99.90;;;;;;5088970;28;20388;-65
2022/08/25 12:33:21;;;;;;;4.68;2.53;;;30.60;99.90;;;;;;5090029;28;20400;-65
2022/08/25 12:35:56;;;;;;;4.65;2.72;;;30.00;99.90;;;;;;5089002;28;20422;-65
2022/08/25 12:38:45;;;;;;;2.78;2.22;;;29.70;99.90;;;;;;5106305;28;20403;-65
2022/08/25 12:41:22;;;;;;;4.90;2.60;;;29.90;99.90;;;;;;5085609;28;20403;-66
2022/08/25 12:43:50;;;;;;;3.50;2.67;;;30.10;99.90;;;;;;5084300;28;20699;-66
2022/08/25 12:46:18;;;;;;;3.63;2.40;;;30.30;99.90;;;;;;5087376;28;20495;-66
2022/08/25 12:49:22;;;;;;;2.72;2.45;;;30.30;99.90;;;;;;5089058;28;20380;-65
2022/08/25 12:51:57;;;;;;;3.60;2.40;;;30.40;99.90;;;;;;5081872;28;20512;-65
2022/08/25 12:54:35;;;;;;;3.50;2.58;;;30.80;99.90;;;;;;5076945;28;20380;-66
2022/08/25 12:57:24;;;;;;;4.43;2.60;;;31.10;99.90;;;;;;5078122;28;20400;-66
2022/08/25 12:59:55;;;;;;;4.13;2.50;;;31.30;99.90;;;;;;5078816;28;20411;-65
2022/08/25 13:03:06;;;;;;;2.65;2.42;;;31.50;99.90;;;;;;5095734;28;20660;-65
2022/08/25 13:06:13;;;;;;;7.82;3.28;;;31.60;99.90;;;;;;5078002;28;20690;-66
2022/08/25 13:08:48;;;;;;;2.72;2.30;;;31.60;99.90;;;;;;5076314;28;20412;-66
2022/08/25 13:11:24;;;;;;;3.58;2.50;;;31.90;99.90;;;;;;5077455;28;20415;-65
2022/08/25 13:14:38;;;;;;;2.60;2.10;;;32.20;99.90;;;;;;5079417;28;20406;-66
2022/08/25 13:17:04;;;;;;;8.77;3.15;;;32.10;99.90;;;;;;5056476;28;20556;-66
2022/08/25 13:19:29;;;;;;;4.18;2.70;;;31.40;99.90;;;;;;5077004;28;20921;-66
2022/08/25 13:21:57;;;;;;;4.03;2.80;;;30.70;99.90;;;;;;5078790;28;20964;-65